Time;durP1;ratioP1;P1;durP2;ratioP2;P2;SDS_P1;SDS_P2;PMS_P1;PMS_P2;Temp;Humidity;BMP_temperature;BMP_pressure;BME280_temperature;BME280_humidity;BME280_pressure;Samples;Min_cycle;Max_cycle;Signal;HPM_P1;HPM_P2
2021/08/15 00:02:21;;;;;;;15.40;12.23;;;17.80;99.90;;;;;;5055566;28;20033;-77
2021/08/15 00:04:48;;;;;;;13.68;10.73;;;17.80;99.90;;;;;;5054674;28;20041;-75
2021/08/15 00:07:14;;;;;;;14.32;11.38;;;17.80;99.90;;;;;;5054242;28;20469;-76
2021/08/15 00:09:40;;;;;;;15.57;10.63;;;17.80;99.90;;;;;;5055299;28;20041;-75
2021/08/15 00:12:08;;;;;;;13.02;10.73;;;17.80;99.90;;;;;;5054835;28;20029;-75
2021/08/15 00:14:34;;;;;;;15.30;11.15;;;17.80;99.90;;;;;;5060617;28;20040;-77
2021/08/15 00:17:01;;;;;;;19.50;12.23;;;18.00;99.90;;;;;;5069035;28;20045;-76
2021/08/15 00:19:27;;;;;;;11.77;10.48;;;18.00;99.90;;;;;;5055035;28;20044;-75
2021/08/15 00:21:53;;;;;;;11.38;9.98;;;18.20;99.90;;;;;;5068350;28;20100;-75
2021/08/15 00:24:20;;;;;;;13.77;11.38;;;18.20;99.90;;;;;;5054731;28;20025;-76
2021/08/15 00:26:46;;;;;;;12.30;10.48;;;18.20;99.90;;;;;;5054843;28;20553;-75
2021/08/15 00:29:12;;;;;;;13.70;9.88;;;18.20;99.90;;;;;;5055150;28;20029;-75
2021/08/15 00:31:38;;;;;;;14.13;10.60;;;18.20;99.90;;;;;;5068621;28;20095;-75
2021/08/15 00:34:04;;;;;;;12.25;10.93;;;18.20;99.90;;;;;;5066681;28;20037;-75
2021/08/15 00:36:31;;;;;;;12.57;10.02;;;18.20;99.90;;;;;;5054623;28;20036;-75
2021/08/15 00:38:57;;;;;;;14.90;10.13;;;18.20;99.90;;;;;;5053826;28;20135;-75
2021/08/15 00:41:23;;;;;;;12.70;10.52;;;18.30;99.90;;;;;;5055091;28;20489;-75
2021/08/15 00:43:49;;;;;;;12.85;10.32;;;18.40;99.90;;;;;;5086368;28;20499;-75
2021/08/15 00:46:17;;;;;;;14.02;10.68;;;18.40;99.90;;;;;;5054733;28;20041;-75
2021/08/15 00:48:43;;;;;;;11.57;9.35;;;18.40;99.90;;;;;;5071218;28;20040;-77
2021/08/15 00:51:10;;;;;;;12.05;10.32;;;18.30;99.90;;;;;;5066559;28;20052;-77
2021/08/15 00:53:39;;;;;;;16.75;10.40;;;18.40;99.90;;;;;;5065179;28;20387;-76
2021/08/15 00:56:07;;;;;;;12.80;9.23;;;18.30;99.90;;;;;;5054526;28;20497;-74
2021/08/15 00:58:34;;;;;;;14.15;10.00;;;18.20;99.90;;;;;;5060191;28;20049;-76
2021/08/15 01:01:02;;;;;;;11.40;10.20;;;18.20;99.90;;;;;;5063405;28;20112;-76
2021/08/15 01:03:29;;;;;;;10.95;9.05;;;18.20;99.90;;;;;;5036616;28;20052;-76
2021/08/15 01:05:55;;;;;;;11.52;9.48;;;18.10;99.90;;;;;;5054661;28;20032;-77
2021/08/15 01:08:22;;;;;;;12.13;8.75;;;18.10;99.90;;;;;;5054492;28;20036;-76
2021/08/15 01:10:48;;;;;;;11.43;9.35;;;18.10;99.90;;;;;;5054842;28;20037;-76
2021/08/15 01:13:15;;;;;;;13.52;9.10;;;18.10;99.90;;;;;;5054428;28;20036;-76
2021/08/15 01:15:41;;;;;;;11.18;8.57;;;18.10;99.90;;;;;;5052754;28;20045;-76
2021/08/15 01:18:38;;;;;;;13.10;9.35;;;18.00;99.90;;;;;;5054003;28;20029;-75
2021/08/15 01:21:13;;;;;;;13.35;8.63;;;18.00;99.90;;;;;;5046187;28;20045;-76
2021/08/15 01:23:42;;;;;;;10.13;9.02;;;17.90;99.90;;;;;;5053735;28;20501;-77
2021/08/15 01:26:09;;;;;;;9.50;8.50;;;17.80;99.90;;;;;;5056314;28;20041;-76
2021/08/15 01:28:36;;;;;;;12.50;9.30;;;17.80;99.90;;;;;;5055589;28;20489;-78
2021/08/15 01:31:03;;;;;;;14.02;9.20;;;17.70;99.90;;;;;;5058536;28;20044;-76
2021/08/15 01:33:33;;;;;;;10.82;9.00;;;17.60;99.90;;;;;;5057031;28;20374;-76
2021/08/15 01:36:01;;;;;;;11.50;9.32;;;17.60;99.90;;;;;;5062393;28;20041;-77
2021/08/15 01:38:29;;;;;;;11.63;9.88;;;17.50;99.90;;;;;;5054022;28;20040;-77
2021/08/15 01:40:56;;;;;;;10.10;8.80;;;17.40;99.90;;;;;;5053443;28;20051;-77
2021/08/15 01:43:24;;;;;;;10.32;9.20;;;17.40;99.90;;;;;;5053359;28;20044;-78
2021/08/15 01:45:51;;;;;;;12.40;8.60;;;17.30;99.90;;;;;;5053795;28;20398;-76
2021/08/15 01:48:19;;;;;;;12.38;8.93;;;17.30;99.90;;;;;;5053688;28;20037;-76
2021/08/15 01:50:46;;;;;;;11.15;8.45;;;17.30;99.90;;;;;;5052561;28;20030;-77
2021/08/15 01:53:15;;;;;;;11.13;8.73;;;17.30;99.90;;;;;;5054295;28;20189;-76
2021/08/15 01:55:42;;;;;;;11.07;8.30;;;17.20;99.90;;;;;;5059243;28;20040;-76
2021/08/15 01:58:10;;;;;;;9.13;8.00;;;17.20;99.90;;;;;;5067487;28;20039;-77
2021/08/15 02:00:38;;;;;;;12.18;8.38;;;17.10;99.90;;;;;;5063590;28;20040;-79
2021/08/15 02:03:04;;;;;;;9.82;7.28;;;17.10;99.90;;;;;;5053319;28;20041;-75
2021/08/15 02:05:31;;;;;;;14.70;7.90;;;17.10;99.90;;;;;;5053347;28;20029;-77
2021/08/15 02:07:57;;;;;;;11.32;8.02;;;17.10;99.90;;;;;;5051710;28;20052;-76
2021/08/15 02:10:28;;;;;;;10.30;7.15;;;17.00;99.90;;;;;;5053023;28;20474;-76
2021/08/15 02:12:57;;;;;;;9.30;7.38;;;17.00;99.90;;;;;;5066601;28;20052;-77
2021/08/15 02:15:23;;;;;;;8.57;7.32;;;16.90;99.90;;;;;;5053234;28;20037;-77
2021/08/15 02:17:49;;;;;;;8.55;6.85;;;16.90;99.90;;;;;;5052519;28;20036;-77
2021/08/15 02:20:18;;;;;;;12.02;8.55;;;16.90;99.90;;;;;;5052849;28;20397;-77
2021/08/15 02:22:45;;;;;;;11.10;8.52;;;16.90;99.90;;;;;;5052294;28;20033;-80
2021/08/15 02:25:13;;;;;;;9.45;7.57;;;16.90;99.90;;;;;;5053273;28;20032;-76
2021/08/15 02:27:41;;;;;;;13.05;8.77;;;16.90;99.90;;;;;;5052123;28;20036;-77
2021/08/15 02:30:10;;;;;;;10.18;8.55;;;16.60;99.90;;;;;;5053129;28;20052;-76
2021/08/15 02:32:37;;;;;;;10.53;7.40;;;16.50;99.90;;;;;;5058029;28;20045;-83
2021/08/15 02:35:05;;;;;;;11.25;8.60;;;16.50;99.90;;;;;;5072034;28;20036;-76
2021/08/15 02:37:32;;;;;;;11.32;8.15;;;16.40;99.90;;;;;;5063197;28;20028;-76
2021/08/15 02:40:00;;;;;;;12.27;8.10;;;16.40;99.90;;;;;;5054151;28;20068;-76
2021/08/15 02:42:28;;;;;;;11.95;7.70;;;16.40;99.90;;;;;;5071271;28;20036;-77
2021/08/15 02:44:54;;;;;;;11.05;7.63;;;16.40;99.90;;;;;;5068861;28;20033;-76
2021/08/15 02:47:21;;;;;;;10.95;8.00;;;16.40;99.90;;;;;;5052977;28;20029;-76
2021/08/15 02:49:47;;;;;;;16.38;8.70;;;16.40;99.90;;;;;;5052246;28;20128;-76
2021/08/15 02:52:13;;;;;;;11.45;8.70;;;16.40;99.90;;;;;;5052943;28;20035;-75
2021/08/15 02:54:40;;;;;;;13.45;8.75;;;16.30;99.90;;;;;;5052329;28;20410;-76
2021/08/15 02:57:06;;;;;;;9.70;7.82;;;16.30;99.90;;;;;;5070953;28;20036;-78
2021/08/15 02:59:39;;;;;;;9.30;7.97;;;16.40;99.90;;;;;;5079444;28;20638;-76
2021/08/15 03:02:10;;;;;;;10.52;8.73;;;16.40;99.90;;;;;;5052401;28;20048;-76
2021/08/15 03:04:36;;;;;;;;;;;16.30;99.90;;;;;;5066807;28;20045;-76
2021/08/15 03:07:02;;;;;;;13.65;8.75;;;16.20;99.90;;;;;;5052352;28;20373;-76
2021/08/15 03:09:29;;;;;;;15.25;8.55;;;16.20;99.90;;;;;;5052522;28;20505;-76
2021/08/15 03:11:56;;;;;;;12.85;9.05;;;16.20;99.90;;;;;;5067961;28;20037;-76
2021/08/15 03:14:22;;;;;;;10.18;8.55;;;16.20;99.90;;;;;;5053283;28;20061;-76
2021/08/15 03:16:49;;;;;;;15.27;8.73;;;16.20;99.90;;;;;;5051458;28;20036;-76
2021/08/15 03:19:15;;;;;;;11.23;8.80;;;16.20;99.90;;;;;;5052111;28;20029;-76
2021/08/15 03:21:41;;;;;;;11.75;8.43;;;16.10;99.90;;;;;;5051541;28;20036;-76
2021/08/15 03:24:07;;;;;;;11.90;8.90;;;16.10;99.90;;;;;;5052007;28;20044;-76
2021/08/15 03:26:36;;;;;;;10.93;8.15;;;16.20;99.90;;;;;;5051828;28;20025;-76
2021/08/15 03:29:03;;;;;;;9.20;7.43;;;16.10;99.90;;;;;;5063722;28;20114;-76
2021/08/15 03:31:29;;;;;;;12.95;6.97;;;16.10;99.90;;;;;;5062868;28;20044;-76
2021/08/15 03:33:55;;;;;;;10.48;8.25;;;16.10;99.90;;;;;;5065073;28;20045;-76
2021/08/15 03:36:22;;;;;;;13.18;8.70;;;16.10;99.90;;;;;;5060743;28;20033;-76
2021/08/15 03:38:48;;;;;;;9.77;8.27;;;16.00;99.90;;;;;;5069048;28;20033;-76
2021/08/15 03:41:14;;;;;;;12.23;8.63;;;15.90;99.90;;;;;;5053146;28;20044;-76
2021/08/15 03:43:40;;;;;;;14.10;8.43;;;15.80;99.90;;;;;;5051749;28;20033;-77
2021/08/15 03:46:06;;;;;;;14.27;8.23;;;15.80;99.90;;;;;;5056447;28;20068;-76
2021/08/15 03:48:32;;;;;;;9.27;7.85;;;15.80;99.90;;;;;;5052218;28;20044;-76
2021/08/15 03:50:58;;;;;;;13.65;8.27;;;15.80;99.90;;;;;;5051680;28;20289;-76
2021/08/15 03:53:25;;;;;;;9.77;7.75;;;15.80;99.90;;;;;;5052014;28;20029;-76
2021/08/15 03:55:51;;;;;;;11.02;7.68;;;15.80;99.90;;;;;;5066181;28;20025;-76
2021/08/15 03:58:17;;;;;;;10.85;7.50;;;15.80;99.90;;;;;;5051441;28;20033;-76
2021/08/15 04:00:43;;;;;;;11.50;7.38;;;15.70;99.90;;;;;;5051075;28;20040;-76
2021/08/15 04:03:11;;;;;;;14.43;7.72;;;15.70;99.90;;;;;;5051480;28;20032;-76
2021/08/15 04:05:38;;;;;;;13.75;7.95;;;15.80;99.90;;;;;;5049961;28;20041;-76
2021/08/15 04:08:07;;;;;;;10.77;7.65;;;15.80;99.90;;;;;;5065668;28;20032;-76
2021/08/15 04:10:34;;;;;;;12.75;7.05;;;15.80;99.90;;;;;;5059441;28;20449;-76
2021/08/15 04:13:01;;;;;;;10.63;7.35;;;15.80;99.90;;;;;;5054671;28;20025;-76
2021/08/15 04:15:27;;;;;;;11.27;6.90;;;15.80;99.90;;;;;;5055060;28;20033;-76
2021/08/15 04:17:53;;;;;;;13.27;7.90;;;15.70;99.90;;;;;;5054946;28;20036;-76
2021/08/15 04:20:21;;;;;;;10.20;6.57;;;15.80;99.90;;;;;;5037416;28;20045;-76
2021/08/15 04:22:49;;;;;;;11.25;6.63;;;15.80;99.90;;;;;;5055064;28;20033;-76
2021/08/15 04:25:16;;;;;;;9.55;7.25;;;15.80;99.90;;;;;;5059203;28;20029;-76
2021/08/15 04:27:43;;;;;;;10.48;7.25;;;15.80;99.90;;;;;;5056160;28;20036;-77
2021/08/15 04:30:10;;;;;;;8.55;6.43;;;15.80;99.90;;;;;;5063028;28;20033;-76
2021/08/15 04:32:37;;;;;;;10.70;6.03;;;15.80;99.90;;;;;;5055081;28;20052;-76
2021/08/15 04:35:04;;;;;;;9.57;6.65;;;15.90;99.90;;;;;;5054499;28;20470;-76
2021/08/15 04:37:30;;;;;;;10.63;6.30;;;16.00;99.90;;;;;;5055196;28;20029;-76
2021/08/15 04:39:56;;;;;;;8.85;5.97;;;16.10;99.90;;;;;;5070019;28;20032;-76
2021/08/15 04:42:23;;;;;;;8.32;5.97;;;16.20;99.90;;;;;;5069061;28;20033;-76
2021/08/15 04:44:49;;;;;;;8.45;6.20;;;16.20;99.90;;;;;;5054412;28;20033;-76
2021/08/15 04:47:15;;;;;;;13.98;7.15;;;16.30;99.90;;;;;;5055020;28;20367;-76
2021/08/15 04:49:41;;;;;;;9.93;5.85;;;16.40;99.90;;;;;;5054437;28;20029;-77
2021/08/15 04:52:07;;;;;;;8.85;6.60;;;16.50;99.90;;;;;;5066473;28;20035;-76
2021/08/15 04:54:34;;;;;;;11.45;6.63;;;16.50;99.90;;;;;;5064032;28;20040;-76
2021/08/15 04:57:00;;;;;;;9.70;6.18;;;16.50;99.90;;;;;;5066949;28;20032;-76
2021/08/15 04:59:27;;;;;;;11.88;5.78;;;16.50;99.90;;;;;;5054930;28;20060;-77
2021/08/15 05:01:53;;;;;;;9.73;5.50;;;16.50;99.90;;;;;;5069371;28;20492;-78
2021/08/15 05:04:20;;;;;;;9.85;6.15;;;16.50;99.90;;;;;;5060698;28;20467;-78
2021/08/15 05:06:46;;;;;;;10.05;6.05;;;16.60;99.90;;;;;;5054406;28;20025;-78
2021/08/15 05:09:13;;;;;;;9.82;5.85;;;16.70;99.90;;;;;;5054569;28;20051;-76
2021/08/15 05:11:39;;;;;;;9.50;4.97;;;16.70;99.90;;;;;;5060979;28;20029;-81
2021/08/15 05:14:06;;;;;;;10.13;5.65;;;16.90;99.90;;;;;;5066488;28;20477;-76
2021/08/15 05:16:33;;;;;;;7.43;4.95;;;17.00;99.90;;;;;;5054399;28;20048;-76
2021/08/15 05:18:59;;;;;;;11.55;5.13;;;17.10;99.90;;;;;;5053753;28;20033;-76
2021/08/15 05:21:26;;;;;;;8.88;5.00;;;17.20;99.90;;;;;;5071845;28;20385;-76
2021/08/15 05:23:53;;;;;;;8.55;5.43;;;17.30;99.90;;;;;;5072838;28;20401;-76
2021/08/15 05:26:19;;;;;;;9.48;5.38;;;17.60;99.90;;;;;;5053811;28;20033;-77
2021/08/15 05:28:45;;;;;;;7.68;4.63;;;18.40;99.90;;;;;;5053854;28;20037;-77
2021/08/15 05:31:12;;;;;;;10.25;5.93;;;18.60;99.90;;;;;;5068390;28;20044;-77
2021/08/15 05:33:38;;;;;;;8.40;4.63;;;18.90;99.90;;;;;;5053881;28;20052;-77
2021/08/15 05:36:04;;;;;;;6.85;4.50;;;19.60;97.90;;;;;;5065177;28;20040;-81
2021/08/15 05:38:30;;;;;;;7.63;5.05;;;20.10;96.10;;;;;;5056550;28;20132;-77
2021/08/15 05:40:56;;;;;;;7.72;4.60;;;20.40;94.50;;;;;;5053367;28;20033;-74
2021/08/15 05:43:23;;;;;;;9.93;4.38;;;20.80;93.00;;;;;;5054495;28;20151;-74
2021/08/15 05:45:49;;;;;;;10.40;4.55;;;21.20;91.20;;;;;;5062767;28;20033;-75
2021/08/15 05:48:15;;;;;;;7.85;4.72;;;21.60;90.10;;;;;;5063233;28;20029;-75
2021/08/15 05:50:41;;;;;;;7.05;4.63;;;22.80;85.60;;;;;;5056129;28;20025;-75
2021/08/15 05:53:08;;;;;;;9.32;4.45;;;23.30;80.60;;;;;;5054972;28;20029;-75
2021/08/15 05:55:34;;;;;;;9.88;5.05;;;22.90;79.90;;;;;;5060981;28;20040;-75
2021/08/15 05:58:00;;;;;;;6.35;4.28;;;23.20;79.40;;;;;;5061728;28;20041;-76
2021/08/15 06:00:26;;;;;;;6.35;4.60;;;23.10;78.80;;;;;;5057748;28;20041;-76
2021/08/15 06:02:52;;;;;;;8.68;4.90;;;22.90;79.20;;;;;;5057624;28;20036;-75
2021/08/15 06:05:19;;;;;;;6.90;4.60;;;22.80;78.50;;;;;;5053744;28;20029;-75
2021/08/15 06:07:45;;;;;;;7.13;4.70;;;22.70;78.20;;;;;;5053353;28;20051;-75
2021/08/15 06:10:11;;;;;;;10.02;4.88;;;22.60;79.00;;;;;;5053522;28;20040;-76
2021/08/15 06:12:38;;;;;;;7.55;3.90;;;22.60;78.60;;;;;;5053283;28;20474;-75
2021/08/15 06:15:08;;;;;;;12.93;5.10;;;22.30;78.70;;;;;;5052367;28;20033;-75
2021/08/15 06:17:34;;;;;;;9.07;4.82;;;22.30;78.80;;;;;;5053031;28;20040;-75
2021/08/15 06:20:00;;;;;;;6.80;4.40;;;22.50;78.70;;;;;;5053042;28;20029;-76
2021/08/15 06:22:27;;;;;;;12.50;4.70;;;22.70;78.10;;;;;;5035674;28;20041;-76
2021/08/15 06:24:53;;;;;;;8.23;4.30;;;23.00;76.20;;;;;;5052287;28;20036;-76
2021/08/15 06:27:19;;;;;;;10.68;5.13;;;23.00;76.70;;;;;;5053039;28;20032;-76
2021/08/15 06:29:45;;;;;;;7.45;5.20;;;23.30;75.40;;;;;;5052701;28;20485;-77
2021/08/15 06:32:11;;;;;;;8.60;4.40;;;23.50;74.10;;;;;;5053092;28;20044;-76
2021/08/15 06:34:37;;;;;;;8.88;3.97;;;24.60;71.50;;;;;;5060873;28;20095;-76
2021/08/15 06:37:06;;;;;;;7.95;3.67;;;24.50;71.20;;;;;;5051959;28;20037;-75
2021/08/15 06:39:32;;;;;;;10.48;4.30;;;24.50;70.60;;;;;;5052448;28;20040;-80
2021/08/15 06:41:58;;;;;;;5.50;3.90;;;24.50;70.10;;;;;;5066542;28;20037;-76
2021/08/15 06:44:24;;;;;;;6.00;4.00;;;24.50;69.30;;;;;;5052947;28;20041;-77
2021/08/15 06:46:50;;;;;;;8.48;4.25;;;24.40;70.70;;;;;;5052181;28;20056;-75
2021/08/15 06:49:16;;;;;;;6.30;4.55;;;24.00;70.50;;;;;;5052661;28;20040;-77
2021/08/15 06:51:45;;;;;;;6.50;4.05;;;24.10;70.70;;;;;;5066610;28;20394;-77
2021/08/15 06:54:12;;;;;;;8.48;4.75;;;24.10;70.10;;;;;;5051039;28;20395;-76
2021/08/15 06:56:38;;;;;;;9.23;4.18;;;24.00;72.40;;;;;;5052789;28;20382;-76
2021/08/15 06:59:05;;;;;;;6.57;3.90;;;24.20;70.60;;;;;;5051639;28;20037;-76
2021/08/15 07:01:32;;;;;;;6.80;3.78;;;24.30;70.40;;;;;;5052102;28;20041;-75
2021/08/15 07:03:58;;;;;;;10.68;4.60;;;24.00;71.70;;;;;;5051237;28;20489;-76
2021/08/15 07:06:25;;;;;;;8.00;4.32;;;24.10;71.90;;;;;;5051592;28;20029;-78
2021/08/15 07:08:51;;;;;;;8.52;4.07;;;24.10;71.30;;;;;;5059072;28;20041;-76
2021/08/15 07:11:17;;;;;;;6.80;3.90;;;24.60;70.30;;;;;;5051988;28;20029;-78
2021/08/15 07:13:44;;;;;;;5.78;4.07;;;24.60;68.90;;;;;;5052272;28;20029;-84
2021/08/15 07:16:10;;;;;;;7.15;3.85;;;24.20;70.20;;;;;;5052168;28;20048;-76
2021/08/15 07:18:36;;;;;;;6.20;4.25;;;24.80;69.20;;;;;;5050614;28;20029;-77
2021/08/15 07:21:02;;;;;;;7.78;4.35;;;24.60;69.50;;;;;;5066042;28;20048;-76
2021/08/15 07:23:29;;;;;;;6.45;4.05;;;24.30;68.90;;;;;;5052337;28;20367;-75
2021/08/15 07:25:55;;;;;;;9.50;3.97;;;24.60;69.00;;;;;;5051885;28;20032;-76
2021/08/15 07:28:21;;;;;;;7.97;4.22;;;24.80;68.10;;;;;;5062890;28;20037;-76
2021/08/15 07:30:48;;;;;;;8.68;4.55;;;24.10;69.60;;;;;;5051798;28;20033;-76
2021/08/15 07:33:14;;;;;;;6.07;3.80;;;23.60;71.40;;;;;;5052034;28;20053;-76
2021/08/15 07:35:40;;;;;;;7.25;3.58;;;23.60;71.30;;;;;;5051629;28;20044;-76
2021/08/15 07:38:07;;;;;;;5.55;3.70;;;24.30;70.90;;;;;;5051721;28;20033;-75
2021/08/15 07:40:33;;;;;;;6.82;4.25;;;24.90;68.80;;;;;;5058554;28;20440;-75
2021/08/15 07:43:00;;;;;;;6.65;4.18;;;24.80;68.50;;;;;;5059070;28;20025;-76
2021/08/15 07:45:31;;;;;;;6.05;3.92;;;25.20;68.60;;;;;;5052280;28;20037;-76
2021/08/15 07:47:57;;;;;;;8.95;4.38;;;25.50;67.10;;;;;;5053289;28;20493;-76
2021/08/15 07:50:26;;;;;;;8.60;3.80;;;25.80;65.40;;;;;;5070281;28;20397;-75
2021/08/15 07:52:52;;;;;;;6.75;3.78;;;26.30;64.60;;;;;;5055876;28;20029;-76
2021/08/15 07:55:18;;;;;;;8.25;4.28;;;26.20;65.20;;;;;;5055631;28;20033;-76
2021/08/15 07:57:45;;;;;;;6.78;3.72;;;27.00;62.70;;;;;;5056134;28;20029;-75
2021/08/15 08:00:11;;;;;;;13.48;4.40;;;26.70;63.90;;;;;;5055944;28;20037;-75
2021/08/15 08:02:38;;;;;;;9.20;4.10;;;26.60;63.50;;;;;;5062989;28;20025;-76
2021/08/15 08:05:04;;;;;;;7.38;4.40;;;26.70;62.70;;;;;;5055893;28;20032;-76
2021/08/15 08:07:30;;;;;;;7.80;4.03;;;26.00;64.20;;;;;;5055769;28;20032;-77
2021/08/15 08:09:56;;;;;;;6.15;3.72;;;26.40;63.00;;;;;;5055315;28;20470;-77
2021/08/15 08:12:23;;;;;;;6.43;3.63;;;26.40;62.70;;;;;;5061449;28;20148;-77
2021/08/15 08:14:50;;;;;;;10.02;3.35;;;26.90;62.70;;;;;;5065054;28;20047;-78
2021/08/15 08:17:17;;;;;;;7.40;3.72;;;26.80;59.30;;;;;;5054603;28;20043;-77
2021/08/15 08:19:43;;;;;;;8.57;3.60;;;27.20;61.90;;;;;;5055415;28;20040;-77
2021/08/15 08:22:11;;;;;;;6.43;4.28;;;27.30;61.00;;;;;;5055497;28;20037;-78
2021/08/15 08:24:37;;;;;;;6.18;3.03;;;27.20;61.40;;;;;;5055576;28;20032;-76
2021/08/15 08:27:04;;;;;;;6.03;3.58;;;27.20;59.60;;;;;;5066889;28;20039;-76
2021/08/15 08:29:30;;;;;;;10.63;3.08;;;26.40;61.80;;;;;;5055545;28;20028;-76
2021/08/15 08:31:56;;;;;;;6.05;3.40;;;26.00;61.50;;;;;;5055153;28;20462;-77
2021/08/15 08:34:23;;;;;;;6.57;3.38;;;26.30;60.50;;;;;;5056266;28;20060;-77
2021/08/15 08:36:49;;;;;;;7.95;3.47;;;27.50;59.60;;;;;;5055086;28;20029;-77
2021/08/15 08:39:15;;;;;;;9.32;4.82;;;26.70;60.00;;;;;;5055636;28;20390;-78
2021/08/15 08:41:41;;;;;;;5.50;3.55;;;26.00;62.00;;;;;;5055442;28;20048;-76
2021/08/15 08:44:08;;;;;;;8.18;3.90;;;26.40;62.00;;;;;;5055173;28;20369;-77
2021/08/15 08:46:35;;;;;;;5.65;3.85;;;26.90;61.70;;;;;;5054945;28;20045;-78
2021/08/15 08:49:01;;;;;;;6.22;3.33;;;27.00;60.50;;;;;;5054605;28;20037;-76
2021/08/15 08:51:30;;;;;;;7.15;3.60;;;27.50;60.20;;;;;;5055502;28;20036;-75
2021/08/15 08:53:56;;;;;;;5.63;3.35;;;27.20;60.90;;;;;;5054690;28;20044;-74
2021/08/15 08:56:23;;;;;;;5.75;2.67;;;27.10;60.80;;;;;;5055594;28;20033;-76
2021/08/15 08:58:50;;;;;;;7.03;3.58;;;27.20;60.50;;;;;;5054530;28;20104;-79
2021/08/15 09:01:17;;;;;;;7.18;4.03;;;26.60;60.80;;;;;;5054787;28;20040;-75
2021/08/15 09:03:45;;;;;;;6.25;3.63;;;26.40;59.80;;;;;;5064281;28;20560;-80
2021/08/15 09:06:22;;;;;;;6.07;3.13;;;26.80;60.90;;;;;;5073115;28;20036;-75
2021/08/15 09:08:49;;;;;;;5.72;3.50;;;27.80;58.80;;;;;;5073871;28;20047;-75
2021/08/15 09:11:25;;;;;;;6.25;3.42;;;27.20;59.80;;;;;;5055076;28;20032;-75
2021/08/15 09:14:18;;;;;;;6.38;2.90;;;27.70;58.40;;;;;;5054390;28;20037;-77
2021/08/15 09:17:02;;;;;;;5.03;3.05;;;27.50;58.20;;;;;;5068422;28;20036;-76
2021/08/15 09:19:37;;;;;;;4.65;3.00;;;28.10;58.00;;;;;;5073766;28;20033;-76
2021/08/15 09:22:24;;;;;;;6.70;3.50;;;28.10;57.80;;;;;;5067962;28;20103;-75
2021/08/15 09:24:57;;;;;;;5.72;2.92;;;28.10;57.10;;;;;;5065317;28;20033;-76
2021/08/15 09:27:27;;;;;;;8.18;3.10;;;27.60;57.60;;;;;;5065544;28;20041;-75
2021/08/15 09:30:16;;;;;;;;;;;27.40;57.60;;;;;;5055267;28;20044;-75
2021/08/15 09:32:57;;;;;;;5.35;3.13;;;26.90;58.40;;;;;;5048690;28;19924;-75
2021/08/15 09:35:35;;;;;;;4.70;2.80;;;27.10;57.50;;;;;;5063086;28;20060;-76
2021/08/15 09:38:14;;;;;;;6.32;2.85;;;27.10;57.60;;;;;;5053733;28;20037;-75
2021/08/15 09:40:42;;;;;;;6.45;3.25;;;26.90;56.90;;;;;;5054189;28;20044;-75
2021/08/15 09:43:26;;;;;;;4.03;1.95;;;27.00;57.10;;;;;;5054026;28;20040;-75
2021/08/15 09:46:00;;;;;;;5.22;2.40;;;26.70;56.10;;;;;;5053893;28;20490;-78
2021/08/15 09:48:37;;;;;;;4.85;1.80;;;27.30;55.40;;;;;;5054132;28;20043;-76
2021/08/15 09:51:10;;;;;;;5.15;2.45;;;27.50;53.90;;;;;;5053694;28;20033;-76
2021/08/15 09:53:44;;;;;;;4.60;2.10;;;27.60;54.70;;;;;;5061766;28;20032;-77
2021/08/15 09:56:11;;;;;;;7.25;2.47;;;27.10;55.30;;;;;;5052226;28;20044;-77
2021/08/15 09:58:38;;;;;;;4.70;2.28;;;27.40;55.30;;;;;;5052777;28;20040;-77
2021/08/15 10:01:06;;;;;;;4.28;2.20;;;27.40;54.70;;;;;;5053614;28;20485;-75
2021/08/15 10:03:38;;;;;;;3.55;2.17;;;27.40;55.00;;;;;;5054155;28;20036;-75
2021/08/15 10:06:04;;;;;;;5.07;2.42;;;26.90;55.40;;;;;;5053144;28;20044;-76
2021/08/15 10:08:31;;;;;;;7.18;2.45;;;26.80;56.00;;;;;;5052884;28;20044;-80
2021/08/15 10:10:58;;;;;;;5.00;2.63;;;27.00;55.70;;;;;;5059331;28;20020;-75
2021/08/15 10:13:25;;;;;;;3.53;2.20;;;27.10;56.00;;;;;;5065790;28;20040;-76
2021/08/15 10:16:00;;;;;;;4.40;2.05;;;27.20;55.30;;;;;;5053513;28;20033;-75
2021/08/15 10:18:29;;;;;;;5.10;2.88;;;27.50;55.30;;;;;;5067359;28;20463;-75
2021/08/15 10:21:14;;;;;;;4.32;2.70;;;27.50;55.40;;;;;;5054407;28;20029;-76
2021/08/15 10:23:43;;;;;;;3.65;2.42;;;27.30;55.30;;;;;;5058173;28;20036;-75
2021/08/15 10:26:38;;;;;;;3.35;2.20;;;27.30;55.00;;;;;;5056511;28;20055;-74
2021/08/15 10:29:25;;;;;;;4.35;1.98;;;27.30;54.20;;;;;;5060809;28;20033;-77
2021/08/15 10:32:26;;;;;;;4.30;2.65;;;27.00;54.70;;;;;;5072724;28;20029;-76
2021/08/15 10:34:54;;;;;;;3.28;2.17;;;27.10;54.60;;;;;;5007152;28;20045;-79
2021/08/15 10:37:23;;;;;;;3.75;2.00;;;27.10;54.50;;;;;;5050906;28;20037;-77
2021/08/15 10:39:51;;;;;;;3.90;2.17;;;27.20;55.10;;;;;;5056331;28;20032;-83
2021/08/15 10:42:39;;;;;;;4.43;2.25;;;27.40;54.30;;;;;;5069552;28;20040;-75
2021/08/15 10:45:07;;;;;;;3.60;2.28;;;27.20;53.20;;;;;;5052642;28;20033;-76
2021/08/15 10:47:35;;;;;;;3.83;2.67;;;27.10;54.20;;;;;;5058658;28;20024;-76
2021/08/15 10:50:03;;;;;;;7.75;2.97;;;27.40;54.20;;;;;;5061903;28;20095;-75
2021/08/15 10:52:39;;;;;;;3.88;2.13;;;27.60;53.50;;;;;;5053345;28;20039;-76
2021/08/15 10:55:08;;;;;;;5.13;2.38;;;27.70;53.70;;;;;;5053552;28;20028;-76
2021/08/15 10:57:50;;;;;;;3.47;2.00;;;27.50;53.60;;;;;;5053281;28;20029;-76
2021/08/15 11:00:31;;;;;;;3.97;2.20;;;27.50;53.20;;;;;;5070471;28;20051;-75
2021/08/15 11:03:13;;;;;;;3.53;2.00;;;27.90;52.20;;;;;;5053463;28;20092;-76
2021/08/15 11:05:40;;;;;;;3.03;1.77;;;27.90;52.20;;;;;;5072181;28;20032;-76
2021/08/15 11:08:32;;;;;;;4.68;1.88;;;27.70;51.70;;;;;;5051830;28;20025;-80
2021/08/15 11:11:11;;;;;;;3.60;2.00;;;27.70;51.40;;;;;;5054002;28;20041;-76
2021/08/15 11:13:38;;;;;;;2.20;1.27;;;27.70;50.10;;;;;;5056813;28;20033;-75
2021/08/15 11:16:26;;;;;;;6.45;1.77;;;27.90;50.60;;;;;;5051995;28;20037;-78
2021/08/15 11:19:08;;;;;;;2.72;1.50;;;28.00;50.60;;;;;;5051798;28;20382;-76
2021/08/15 11:22:19;;;;;;;2.83;1.20;;;28.10;50.30;;;;;;5052567;28;20041;-75
2021/08/15 11:24:45;;;;;;;2.70;1.52;;;28.30;50.00;;;;;;5059205;28;20049;-75
2021/08/15 11:27:32;;;;;;;3.63;1.27;;;28.20;49.60;;;;;;5056391;28;20147;-76
2021/08/15 11:30:03;;;;;;;3.00;1.77;;;27.90;50.20;;;;;;5051927;28;20041;-75
2021/08/15 11:32:31;;;;;;;3.72;1.70;;;28.20;50.00;;;;;;5060019;28;20509;-76
2021/08/15 11:35:12;;;;;;;3.35;2.00;;;28.30;50.20;;;;;;5052018;28;20100;-77
2021/08/15 11:37:50;;;;;;;5.68;2.50;;;28.20;50.60;;;;;;5056294;28;20044;-77
2021/08/15 11:40:19;;;;;;;5.78;1.88;;;28.10;50.70;;;;;;5052263;28;20056;-74
2021/08/15 11:42:57;;;;;;;3.70;1.77;;;28.40;50.30;;;;;;5066354;28;20473;-75
2021/08/15 11:45:54;;;;;;;3.03;1.60;;;28.60;49.60;;;;;;5052186;28;20291;-74
2021/08/15 11:48:23;;;;;;;3.15;1.70;;;28.70;49.80;;;;;;5051145;28;20045;-76
2021/08/15 11:50:52;;;;;;;3.30;1.95;;;28.50;50.40;;;;;;5063808;28;20037;-75
2021/08/15 11:53:29;;;;;;;6.65;2.08;;;28.50;50.00;;;;;;5051883;28;20040;-76
2021/08/15 11:56:06;;;;;;;3.70;1.70;;;28.40;51.00;;;;;;5051964;28;20517;-78
2021/08/15 11:58:34;;;;;;;3.63;2.13;;;28.60;50.80;;;;;;5064830;28;20025;-77
2021/08/15 12:01:07;;;;;;;3.67;2.03;;;28.70;51.50;;;;;;5051659;28;20025;-76
2021/08/15 12:03:33;;;;;;;4.18;2.38;;;29.10;49.90;;;;;;5051057;28;20037;-76
2021/08/15 12:06:04;;;;;;;4.45;2.08;;;29.00;49.70;;;;;;5051668;28;20041;-75
2021/08/15 12:08:35;;;;;;;4.97;2.42;;;29.00;49.40;;;;;;5052136;28;20036;-76
2021/08/15 12:11:02;;;;;;;4.82;2.50;;;28.70;50.40;;;;;;5064180;28;20378;-76
2021/08/15 12:13:34;;;;;;;4.15;2.00;;;28.30;50.10;;;;;;5064405;28;20033;-76
2021/08/15 12:16:00;;;;;;;2.97;1.65;;;28.40;50.40;;;;;;5057908;28;20044;-76
2021/08/15 12:18:31;;;;;;;3.67;1.98;;;28.80;50.70;;;;;;5070885;28;20505;-76
2021/08/15 12:20:59;;;;;;;3.42;2.05;;;28.80;50.20;;;;;;5053683;28;20478;-75
2021/08/15 12:23:27;;;;;;;4.95;2.58;;;28.90;50.60;;;;;;5051969;28;20033;-76
2021/08/15 12:26:06;;;;;;;5.20;2.33;;;28.80;51.00;;;;;;5051335;28;20033;-77
2021/08/15 12:28:34;;;;;;;3.60;2.03;;;29.00;51.40;;;;;;5060544;28;20378;-77
2021/08/15 12:31:23;;;;;;;4.70;2.38;;;29.20;50.20;;;;;;5051153;28;20029;-77
2021/08/15 12:34:02;;;;;;;4.43;2.50;;;29.30;50.90;;;;;;5057670;28;20169;-76
2021/08/15 12:36:30;;;;;;;4.25;2.65;;;29.30;49.90;;;;;;5074572;28;20032;-78
2021/08/15 12:39:04;;;;;;;3.53;2.85;;;29.30;51.30;;;;;;5066447;28;20036;-81
2021/08/15 12:41:52;;;;;;;4.47;2.55;;;29.80;50.10;;;;;;5054950;28;20037;-79
2021/08/15 12:44:21;;;;;;;6.57;2.40;;;29.90;49.70;;;;;;5054974;28;20132;-77
2021/08/15 12:47:08;;;;;;;3.38;2.15;;;29.60;50.00;;;;;;5055443;28;20406;-75
2021/08/15 12:49:45;;;;;;;3.60;2.28;;;29.40;50.10;;;;;;5055087;28;20036;-76
2021/08/15 12:52:17;;;;;;;3.15;2.30;;;29.40;50.30;;;;;;5054820;28;20375;-75
2021/08/15 12:55:11;;;;;;;5.57;2.17;;;29.20;50.90;;;;;;5054788;28;20037;-75